createdAt,value
2023-08-18T00:00:09.152Z,26.30
2023-08-18T00:02:37.426Z,26.30
2023-08-18T00:05:06.030Z,26.30
2023-08-18T00:07:34.075Z,26.30
2023-08-18T00:10:05.606Z,26.30
2023-08-18T00:12:33.939Z,26.30
2023-08-18T00:15:02.792Z,26.30
2023-08-18T00:17:31.196Z,26.30
2023-08-18T00:19:59.465Z,26.30
2023-08-18T00:22:27.462Z,26.30
2023-08-18T00:24:57.274Z,26.30
2023-08-18T00:27:25.395Z,26.30
2023-08-18T00:29:53.652Z,26.30
2023-08-18T00:32:21.692Z,26.30
2023-08-18T00:34:49.864Z,26.30
2023-08-18T00:37:17.996Z,26.30
2023-08-18T00:39:45.964Z,26.30
2023-08-18T00:42:13.905Z,26.30
2023-08-18T00:44:41.825Z,26.30
2023-08-18T00:47:09.866Z,26.30
2023-08-18T00:49:38.061Z,26.30
2023-08-18T00:52:07.552Z,26.30
2023-08-18T00:54:35.751Z,26.30
2023-08-18T00:57:04.011Z,26.30
2023-08-18T00:59:32.231Z,26.30
2023-08-18T01:02:04.014Z,26.30
2023-08-18T01:04:33.409Z,26.30
2023-08-18T01:07:01.651Z,26.30
2023-08-18T01:09:30.803Z,26.30
2023-08-18T01:12:16.499Z,26.30
2023-08-18T01:14:56.030Z,26.30
2023-08-18T01:17:41.900Z,26.30
2023-08-18T01:20:11.730Z,26.30
2023-08-18T01:22:41.577Z,26.30
2023-08-18T01:25:09.751Z,26.30
2023-08-18T01:27:37.923Z,26.30
2023-08-18T01:30:06.565Z,26.30
2023-08-18T01:32:43.508Z,26.30
2023-08-18T01:35:13.543Z,26.30
2023-08-18T01:37:43.516Z,26.30
2023-08-18T01:40:13.764Z,26.30
2023-08-18T01:42:42.318Z,26.30
2023-08-18T01:45:12.670Z,26.30
2023-08-18T01:47:40.774Z,26.30
2023-08-18T01:50:10.925Z,26.30
2023-08-18T01:52:38.963Z,26.30
2023-08-18T01:55:07.403Z,26.30
2023-08-18T01:57:35.389Z,26.30
2023-08-18T02:00:03.703Z,26.30
2023-08-18T02:02:40.832Z,26.30
2023-08-18T02:05:09.194Z,26.30
2023-08-18T02:07:37.776Z,26.30
2023-08-18T02:10:06.340Z,26.30
2023-08-18T02:12:34.352Z,26.30
2023-08-18T02:15:02.388Z,26.30
2023-08-18T02:17:32.852Z,26.30
2023-08-18T02:20:01.191Z,26.30
2023-08-18T02:22:29.156Z,26.30
2023-08-18T02:24:57.262Z,26.30
2023-08-18T02:27:27.504Z,26.30
2023-08-18T02:29:56.106Z,26.30
2023-08-18T02:32:25.514Z,26.30
2023-08-18T02:34:53.813Z,26.30
2023-08-18T02:37:21.958Z,26.30
2023-08-18T02:39:49.936Z,26.30
2023-08-18T02:42:18.040Z,26.30
2023-08-18T02:44:46.104Z,26.30
2023-08-18T02:47:14.486Z,26.30
2023-08-18T02:49:42.467Z,26.30
2023-08-18T02:52:11.639Z,26.30
2023-08-18T02:54:39.767Z,26.30
2023-08-18T02:57:08.069Z,26.30
2023-08-18T02:59:36.088Z,26.30
2023-08-18T03:02:04.074Z,26.30
2023-08-18T03:04:32.195Z,26.30
2023-08-18T03:07:01.756Z,26.30
2023-08-18T03:09:29.878Z,26.30
2023-08-18T03:11:57.863Z,26.30
2023-08-18T03:14:25.990Z,26.30
2023-08-18T03:16:56.849Z,26.30
2023-08-18T03:19:26.069Z,26.30
2023-08-18T03:21:54.013Z,26.30
2023-08-18T03:24:22.077Z,26.30
2023-08-18T03:26:50.637Z,26.30
2023-08-18T03:29:19.203Z,26.30
2023-08-18T03:31:47.421Z,26.30
2023-08-18T03:34:15.502Z,26.20
2023-08-18T03:36:44.702Z,26.30
2023-08-18T03:39:13.801Z,26.20
2023-08-18T03:41:41.734Z,26.30
2023-08-18T03:44:10.514Z,26.30
2023-08-18T03:46:39.467Z,26.30
2023-08-18T03:49:07.591Z,26.30
2023-08-18T03:51:35.617Z,26.30
2023-08-18T03:54:04.493Z,26.30
2023-08-18T03:56:33.275Z,26.30
2023-08-18T03:59:01.287Z,26.30
2023-08-18T04:01:29.775Z,26.30
2023-08-18T04:04:00.569Z,26.30
2023-08-18T04:06:28.456Z,26.30
2023-08-18T04:09:08.029Z,26.20
2023-08-18T04:11:37.494Z,26.30
2023-08-18T04:14:06.368Z,26.20
2023-08-18T04:16:34.360Z,26.10
2023-08-18T04:19:05.037Z,26.00
2023-08-18T04:21:35.005Z,25.90
2023-08-18T04:24:03.976Z,25.90
2023-08-18T04:26:32.741Z,25.80
2023-08-18T04:29:02.187Z,25.80
2023-08-18T04:31:32.121Z,25.70
2023-08-18T04:34:02.114Z,25.70
2023-08-18T04:36:30.695Z,25.70
2023-08-18T04:38:58.729Z,25.60
2023-08-18T04:41:32.882Z,25.50
2023-08-18T04:44:00.967Z,25.50
2023-08-18T04:46:32.225Z,25.50
2023-08-18T04:49:05.089Z,25.50
2023-08-18T04:51:33.194Z,25.40
2023-08-18T04:54:01.230Z,25.40
2023-08-18T04:56:29.569Z,25.40
2023-08-18T04:58:57.557Z,25.30
2023-08-18T05:01:26.556Z,25.30
2023-08-18T05:03:54.651Z,25.30
2023-08-18T05:06:22.654Z,25.30
2023-08-18T05:08:50.607Z,25.30
2023-08-18T05:11:19.160Z,25.20
2023-08-18T05:13:47.232Z,25.20
2023-08-18T05:16:15.351Z,25.20
2023-08-18T05:18:43.415Z,25.20
2023-08-18T05:21:11.359Z,25.10
2023-08-18T05:23:39.876Z,25.20
2023-08-18T05:26:08.433Z,25.30
2023-08-18T05:28:36.819Z,25.30
2023-08-18T05:31:05.193Z,25.30
2023-08-18T05:33:33.294Z,25.30
2023-08-18T05:36:01.729Z,25.30
2023-08-18T05:38:29.769Z,25.30
2023-08-18T05:45:30.280Z,25.30
2023-08-18T05:47:59.380Z,25.30
2023-08-18T05:50:29.683Z,25.30
2023-08-18T05:52:57.831Z,25.30
2023-08-18T05:55:26.268Z,25.30
2023-08-18T05:57:54.363Z,25.30
2023-08-18T06:00:22.659Z,25.30
2023-08-18T06:02:50.654Z,25.40
2023-08-18T06:05:18.852Z,25.40
2023-08-18T06:07:46.804Z,25.40
2023-08-18T06:10:14.844Z,25.40
2023-08-18T06:12:43.020Z,25.40
2023-08-18T06:15:12.310Z,25.40
2023-08-18T06:17:41.078Z,25.50
2023-08-18T06:20:09.522Z,25.50
2023-08-18T06:22:38.142Z,25.50
2023-08-18T06:25:08.605Z,25.50
2023-08-18T06:27:36.678Z,25.60
2023-08-18T06:30:05.110Z,25.60
2023-08-18T06:32:34.979Z,25.60
2023-08-18T06:35:03.302Z,25.60
2023-08-18T06:37:31.480Z,25.60
2023-08-18T06:39:59.562Z,25.70
2023-08-18T06:42:27.922Z,25.70
2023-08-18T06:44:56.359Z,25.70
2023-08-18T06:47:24.730Z,25.70
2023-08-18T06:49:52.765Z,25.80
2023-08-18T06:52:20.745Z,25.80
2023-08-18T06:54:48.813Z,25.80
2023-08-18T06:57:16.880Z,25.80
2023-08-18T06:59:45.034Z,25.80
2023-08-18T07:02:13.128Z,25.80
2023-08-18T07:04:41.190Z,25.80
2023-08-18T07:07:09.089Z,25.90
2023-08-18T07:09:37.462Z,25.90
2023-08-18T07:12:05.926Z,25.90
2023-08-18T07:14:33.962Z,25.90
2023-08-18T07:17:01.861Z,25.90
2023-08-18T07:19:29.962Z,26.00
2023-08-18T07:23:13.723Z,26.00
2023-08-18T07:25:43.460Z,26.00
2023-08-18T07:28:12.390Z,26.00
2023-08-18T07:30:40.441Z,26.00
2023-08-18T07:33:08.463Z,26.10
2023-08-18T07:35:36.758Z,26.10
2023-08-18T07:38:04.907Z,26.00
2023-08-18T07:40:32.911Z,26.10
2023-08-18T07:43:00.995Z,26.10
2023-08-18T07:45:29.165Z,26.10
2023-08-18T07:47:58.779Z,26.10
2023-08-18T07:50:26.976Z,26.10
2023-08-18T07:52:55.208Z,26.20
2023-08-18T07:55:23.700Z,26.20
2023-08-18T07:57:51.688Z,26.20
2023-08-18T08:00:22.718Z,26.20
2023-08-18T08:02:51.098Z,26.20
2023-08-18T08:05:20.654Z,26.20
2023-08-18T08:07:49.938Z,26.20
2023-08-18T08:10:18.612Z,26.20
2023-08-18T08:12:49.428Z,26.20
2023-08-18T08:15:18.492Z,26.30
2023-08-18T08:17:47.035Z,26.30
2023-08-18T08:20:18.294Z,26.20
2023-08-18T08:22:49.024Z,26.30
2023-08-18T08:25:18.638Z,26.30
2023-08-18T08:27:46.910Z,26.30
2023-08-18T08:30:25.892Z,26.30
2023-08-18T08:33:05.504Z,26.30
2023-08-18T08:35:35.306Z,26.30
2023-08-18T08:38:03.492Z,26.30
2023-08-18T08:40:31.842Z,26.30
2023-08-18T08:45:31.580Z,26.30
2023-08-18T08:48:06.446Z,26.40
2023-08-18T08:50:39.483Z,26.30
2023-08-18T08:53:12.002Z,26.40
